createdAt,value
2018-11-22T00:02:24.910Z,22.43
2018-11-22T00:04:56.235Z,22.50
2018-11-22T00:07:29.189Z,22.07
2018-11-22T00:10:00.747Z,36.23
2018-11-22T00:12:33.835Z,23.17
2018-11-22T00:15:06.031Z,20.63
2018-11-22T00:17:37.380Z,23.27
2018-11-22T00:20:08.793Z,21.23
2018-11-22T00:22:40.165Z,23.43
2018-11-22T00:25:13.054Z,21.43
2018-11-22T00:27:44.340Z,25.47
2018-11-22T00:30:18.262Z,20.90
2018-11-22T00:32:49.609Z,22.03
2018-11-22T00:35:21.386Z,21.63
2018-11-22T00:37:53.433Z,22.00
2018-11-22T00:40:26.282Z,21.03
2018-11-22T00:42:57.601Z,20.70
2018-11-22T00:45:30.065Z,23.77
2018-11-22T00:48:01.292Z,20.63
2018-11-22T00:50:32.576Z,21.90
2018-11-22T00:53:03.913Z,19.67
2018-11-22T00:55:35.213Z,19.47
2018-11-22T00:58:07.381Z,20.07
2018-11-22T01:00:39.137Z,20.47
2018-11-22T01:03:10.411Z,20.80
2018-11-22T01:05:41.690Z,21.77
2018-11-22T01:08:13.012Z,22.47
2018-11-22T01:10:44.228Z,20.70
2018-11-22T01:13:15.575Z,19.40
2018-11-22T01:15:47.769Z,28.27
2018-11-22T01:18:19.116Z,23.30
2018-11-22T01:20:50.336Z,22.90
2018-11-22T01:23:21.710Z,22.77
2018-11-22T01:25:53.199Z,21.50
2018-11-22T01:28:24.406Z,21.33
2018-11-22T01:30:56.193Z,21.70
2018-11-22T01:33:27.493Z,21.07
2018-11-22T01:35:58.829Z,20.07
2018-11-22T01:38:30.112Z,18.97
2018-11-22T01:41:01.770Z,19.37
2018-11-22T01:43:32.980Z,19.10
2018-11-22T01:46:04.378Z,18.27
2018-11-22T01:48:35.758Z,17.23
2018-11-22T01:51:07.469Z,18.37
2018-11-22T01:53:38.827Z,18.10
2018-11-22T01:56:10.188Z,20.27
2018-11-22T01:58:41.521Z,19.57
2018-11-22T02:01:12.884Z,17.67
2018-11-22T02:03:44.190Z,21.00
2018-11-22T02:06:15.491Z,19.17
2018-11-22T02:08:46.823Z,21.67
2018-11-22T02:11:18.210Z,18.73
2018-11-22T02:13:49.616Z,18.07
2018-11-22T02:16:20.888Z,18.73
2018-11-22T02:18:52.254Z,20.37
2018-11-22T02:21:23.670Z,18.50
2018-11-22T02:23:55.400Z,18.27
2018-11-22T02:26:26.946Z,20.83
2018-11-22T02:28:58.247Z,17.70
2018-11-22T02:31:35.122Z,18.83
2018-11-22T02:34:07.017Z,18.77
2018-11-22T02:36:38.442Z,19.83
2018-11-22T02:39:12.688Z,18.50
2018-11-22T02:41:44.718Z,20.77
2018-11-22T02:44:16.798Z,18.47
2018-11-22T02:46:48.352Z,16.60
2018-11-22T02:49:20.613Z,17.40
2018-11-22T02:51:51.924Z,18.10
2018-11-22T02:54:23.384Z,17.87
2018-11-22T02:56:54.743Z,19.70
2018-11-22T02:59:26.017Z,20.00
2018-11-22T03:01:57.911Z,17.40
2018-11-22T03:04:31.389Z,20.10
2018-11-22T03:07:03.024Z,17.17
2018-11-22T03:09:34.458Z,19.10
2018-11-22T03:12:07.154Z,18.70
2018-11-22T03:14:38.597Z,18.43
2018-11-22T03:17:10.027Z,17.13
2018-11-22T03:19:42.790Z,18.83
2018-11-22T03:22:14.140Z,19.57
2018-11-22T03:24:45.365Z,19.80
2018-11-22T03:27:16.683Z,16.70
2018-11-22T03:29:47.994Z,19.70
2018-11-22T03:32:19.723Z,18.33
2018-11-22T03:34:51.488Z,18.97
2018-11-22T03:37:22.836Z,21.90
2018-11-22T03:39:55.129Z,19.10
2018-11-22T03:42:26.706Z,18.50
2018-11-22T03:44:57.920Z,19.67
2018-11-22T03:47:29.314Z,19.57
2018-11-22T03:50:01.132Z,18.37
2018-11-22T03:52:32.807Z,18.93
2018-11-22T03:55:04.015Z,18.80
2018-11-22T03:57:35.325Z,18.63
2018-11-22T04:00:08.370Z,17.90
2018-11-22T04:02:40.022Z,20.37
2018-11-22T04:05:14.222Z,19.00
2018-11-22T04:07:45.403Z,17.93
2018-11-22T04:10:21.646Z,18.57
2018-11-22T04:12:52.979Z,19.87
2018-11-22T04:15:24.279Z,19.43
2018-11-22T04:17:55.336Z,18.60
2018-11-22T04:20:29.997Z,19.93
2018-11-22T04:23:01.073Z,20.20
2018-11-22T04:25:32.407Z,17.57
2018-11-22T04:28:03.652Z,19.73
2018-11-22T04:30:35.717Z,19.07
2018-11-22T04:33:07.080Z,19.33
2018-11-22T04:35:38.202Z,21.63
2018-11-22T04:38:09.413Z,21.23
2018-11-22T04:40:41.335Z,18.80
2018-11-22T04:43:12.999Z,20.37
2018-11-22T04:45:44.431Z,20.57
2018-11-22T04:48:15.529Z,19.93
2018-11-22T04:50:46.583Z,22.20
2018-11-22T04:53:17.725Z,20.47
2018-11-22T04:55:48.926Z,19.83
2018-11-22T04:58:20.569Z,21.37
2018-11-22T05:00:51.752Z,20.23
2018-11-22T05:03:22.897Z,25.73
2018-11-22T05:05:54.797Z,26.03
2018-11-22T05:08:27.001Z,25.03
2018-11-22T05:10:58.177Z,24.70
2018-11-22T05:13:29.265Z,25.47
2018-11-22T05:16:01.553Z,28.03
2018-11-22T05:18:32.715Z,28.10
2018-11-22T05:21:03.849Z,27.17
2018-11-22T05:23:35.244Z,29.23
2018-11-22T05:26:06.530Z,32.27
2018-11-22T05:28:37.748Z,31.93
2018-11-22T05:31:08.951Z,33.30
2018-11-22T05:33:40.007Z,31.47
2018-11-22T05:36:11.212Z,32.17
2018-11-22T05:38:42.444Z,36.40
2018-11-22T05:41:13.934Z,35.67
2018-11-22T05:43:45.465Z,35.60
2018-11-22T05:46:17.456Z,42.33
2018-11-22T05:48:48.987Z,37.47
2018-11-22T05:51:20.175Z,42.23
2018-11-22T05:53:51.286Z,40.40
2018-11-22T05:56:22.462Z,42.53
2018-11-22T05:58:53.709Z,43.00
2018-11-22T06:01:24.981Z,39.80
2018-11-22T06:03:56.065Z,39.90
2018-11-22T06:06:27.262Z,44.10
2018-11-22T06:08:58.636Z,39.80
2018-11-22T06:11:29.828Z,40.90
2018-11-22T06:14:01.212Z,46.13
2018-11-22T06:16:32.722Z,41.30
2018-11-22T06:19:03.941Z,47.03
2018-11-22T06:21:35.133Z,46.80
2018-11-22T06:24:06.608Z,43.13
2018-11-22T06:26:39.272Z,45.30
2018-11-22T06:29:09.942Z,47.07
2018-11-22T06:31:41.211Z,46.30
2018-11-22T06:34:12.458Z,47.10
2018-11-22T06:36:43.739Z,43.47
2018-11-22T06:39:15.157Z,43.37
2018-11-22T06:41:46.814Z,47.13
2018-11-22T06:44:18.274Z,45.17
2018-11-22T06:46:54.130Z,45.07
2018-11-22T06:49:25.270Z,44.13
2018-11-22T06:51:57.695Z,48.40
2018-11-22T06:54:28.969Z,39.83
2018-11-22T06:57:00.373Z,40.10
2018-11-22T06:59:33.375Z,41.27
2018-11-22T07:02:04.740Z,39.73
2018-11-22T07:04:36.078Z,39.10
2018-11-22T07:07:07.648Z,36.00
2018-11-22T07:09:38.931Z,36.37
2018-11-22T07:12:11.086Z,34.10
2018-11-22T07:14:42.601Z,35.00
2018-11-22T07:17:14.128Z,37.40
2018-11-22T07:19:45.550Z,34.13
2018-11-22T07:22:18.950Z,37.87
2018-11-22T07:24:48.497Z,33.57
2018-11-22T07:27:19.893Z,37.47
2018-11-22T07:29:52.198Z,34.90
2018-11-22T07:32:23.558Z,40.43
2018-11-22T07:34:55.412Z,43.50
2018-11-22T07:37:26.691Z,41.63
2018-11-22T07:39:57.894Z,42.93
2018-11-22T07:45:01.518Z,37.70
2018-11-22T07:47:35.184Z,37.03
2018-11-22T07:50:12.138Z,39.60
2018-11-22T07:52:43.425Z,36.80
2018-11-22T07:55:16.235Z,37.07
2018-11-22T07:57:48.438Z,34.40
2018-11-22T08:00:22.058Z,32.20
2018-11-22T08:02:56.823Z,31.57
2018-11-22T08:05:30.556Z,31.73
2018-11-22T08:08:01.922Z,30.97
2018-11-22T08:10:33.254Z,32.57
2018-11-22T08:13:04.692Z,31.50
2018-11-22T08:15:38.114Z,30.87
2018-11-22T08:18:10.134Z,33.23
2018-11-22T08:20:41.721Z,31.40
2018-11-22T08:23:13.071Z,32.13
2018-11-22T08:25:45.048Z,32.07
2018-11-22T08:28:16.516Z,32.70
2018-11-22T08:30:47.975Z,29.37
2018-11-22T08:33:19.276Z,27.50
2018-11-22T08:35:50.791Z,28.67
2018-11-22T08:38:22.241Z,27.73
2018-11-22T08:40:53.623Z,37.73
2018-11-22T08:43:25.677Z,27.30
2018-11-22T08:45:57.102Z,33.10
2018-11-22T08:48:28.326Z,35.47
2018-11-22T08:50:59.675Z,27.63
2018-11-22T08:53:36.964Z,28.03
2018-11-22T08:56:02.271Z,29.90
2018-11-22T08:58:33.632Z,29.70
2018-11-22T09:01:05.029Z,26.27
2018-11-22T09:03:37.277Z,27.50
2018-11-22T09:06:09.206Z,41.60
2018-11-22T09:08:40.582Z,31.53
2018-11-22T09:11:12.444Z,27.33
2018-11-22T09:13:43.284Z,27.40
2018-11-22T09:16:14.141Z,29.07
2018-11-22T09:18:44.977Z,25.03
2018-11-22T09:21:53.540Z,32.17
2018-11-22T09:24:43.734Z,24.53
2018-11-22T09:27:26.609Z,25.10
2018-11-22T09:30:48.105Z,24.97
2018-11-22T09:33:26.433Z,29.43
2018-11-22T09:36:35.383Z,39.37
2018-11-22T09:39:25.229Z,26.03
2018-11-22T09:42:15.210Z,25.00
2018-11-22T09:45:30.196Z,24.20
2018-11-22T09:48:20.027Z,21.63
2018-11-22T09:51:09.886Z,31.07
2018-11-22T09:54:07.245Z,27.50
2018-11-22T09:56:57.215Z,22.00
2018-11-22T09:59:47.072Z,20.97
2018-11-22T10:02:36.932Z,22.13
2018-11-22T10:05:45.949Z,24.67
2018-11-22T10:08:35.908Z,61.00
2018-11-22T10:11:26.573Z,29.07
2018-11-22T10:14:16.401Z,36.93
2018-11-22T10:17:06.267Z,40.83
2018-11-22T10:22:53.642Z,26.77
2018-11-22T10:25:43.483Z,24.23
2018-11-22T10:31:42.349Z,24.53
2018-11-22T10:34:33.043Z,23.77
2018-11-22T10:40:20.056Z,23.37
2018-11-22T10:43:28.958Z,23.83
2018-11-22T10:46:37.867Z,21.63
2018-11-22T10:49:27.685Z,25.37
2018-11-22T10:55:15.135Z,22.27
2018-11-22T10:58:04.985Z,22.37
2018-11-22T11:01:13.447Z,22.97
2018-11-22T11:04:21.917Z,22.23
2018-11-22T11:07:30.342Z,24.23
2018-11-22T11:10:39.280Z,20.83
2018-11-22T11:13:29.144Z,22.50
2018-11-22T11:16:19.053Z,21.90
2018-11-22T11:19:08.858Z,25.50
2018-11-22T11:22:17.796Z,21.63
2018-11-22T11:24:59.926Z,20.20
2018-11-22T11:27:50.039Z,22.43
2018-11-22T11:30:40.036Z,19.47
2018-11-22T11:33:29.878Z,23.50
2018-11-22T11:36:20.075Z,22.07
2018-11-22T11:39:11.208Z,22.67
2018-11-22T11:41:42.490Z,19.60
2018-11-22T11:44:13.527Z,21.07
2018-11-22T11:46:44.454Z,20.00
2018-11-22T11:49:15.541Z,22.17
2018-11-22T11:51:46.343Z,21.60
2018-11-22T11:54:17.184Z,22.83
2018-11-22T11:56:48.306Z,22.63
2018-11-22T11:59:19.139Z,20.97
2018-11-22T12:01:49.973Z,21.43
2018-11-22T12:04:20.760Z,27.67
2018-11-22T12:06:51.569Z,20.53
2018-11-22T12:09:22.478Z,23.43
2018-11-22T12:11:53.615Z,21.70
2018-11-22T12:14:24.526Z,22.97
2018-11-22T12:16:55.373Z,23.60
2018-11-22T12:19:26.173Z,20.10
2018-11-22T12:21:57.069Z,22.57
2018-11-22T12:24:28.423Z,22.80
2018-11-22T12:26:59.356Z,24.77
2018-11-22T12:29:30.242Z,20.30
2018-11-22T12:32:32.769Z,21.10
2018-11-22T12:35:21.044Z,24.73
2018-11-22T12:38:09.388Z,22.27
2018-11-22T12:40:40.229Z,23.03
2018-11-22T12:43:11.173Z,24.93
2018-11-22T12:45:42.063Z,25.07
2018-11-22T12:48:12.947Z,24.17
2018-11-22T12:50:43.777Z,25.47
2018-11-22T12:53:14.667Z,24.17
2018-11-22T12:55:45.559Z,30.40
2018-11-22T12:58:16.353Z,24.20
2018-11-22T13:00:47.160Z,25.70
2018-11-22T13:03:18.081Z,27.70
2018-11-22T13:05:49.261Z,26.63
2018-11-22T13:08:20.157Z,42.93
2018-11-22T13:10:51.188Z,48.23
2018-11-22T13:13:21.992Z,26.03
2018-11-22T13:15:52.984Z,23.73
2018-11-22T13:18:23.984Z,22.97
2018-11-22T13:20:54.859Z,23.57
2018-11-22T13:23:26.235Z,26.13
2018-11-22T13:25:57.067Z,24.80
2018-11-22T13:28:27.937Z,25.93
2018-11-22T13:30:59.215Z,25.53
2018-11-22T13:33:30.078Z,24.30
2018-11-22T13:36:00.992Z,24.30
2018-11-22T13:38:31.855Z,23.20
2018-11-22T13:41:02.759Z,26.07
2018-11-22T13:43:33.605Z,26.00
2018-11-22T13:46:05.379Z,25.53
2018-11-22T13:48:36.200Z,26.10
2018-11-22T13:51:07.206Z,23.53
2018-11-22T13:53:38.059Z,26.47
2018-11-22T13:56:09.101Z,23.93
2018-11-22T13:58:39.906Z,23.57
2018-11-22T14:01:10.720Z,24.53
2018-11-22T14:03:41.652Z,30.37
2018-11-22T14:06:12.890Z,36.20
2018-11-22T14:08:43.705Z,30.00
2018-11-22T14:11:15.326Z,25.57
2018-11-22T14:13:46.375Z,24.60
2018-11-22T14:16:17.201Z,26.20
2018-11-22T14:18:48.099Z,27.23
2018-11-22T14:21:18.943Z,27.37
2018-11-22T14:23:49.810Z,23.47
2018-11-22T14:26:20.699Z,25.43
2018-11-22T14:28:51.520Z,25.97
2018-11-22T14:31:22.333Z,27.87
2018-11-22T14:33:53.358Z,27.63
2018-11-22T14:36:24.165Z,24.43
2018-11-22T14:38:54.982Z,25.83
2018-11-22T14:41:25.801Z,27.23
2018-11-22T14:43:56.733Z,26.00
2018-11-22T14:46:27.573Z,24.70
2018-11-22T14:48:58.353Z,24.90
2018-11-22T14:51:50.513Z,24.90
2018-11-22T14:54:21.351Z,28.57
2018-11-22T14:56:52.158Z,25.93
2018-11-22T14:59:22.967Z,40.80
2018-11-22T15:01:53.768Z,32.87
2018-11-22T15:04:24.576Z,26.90
2018-11-22T15:06:55.475Z,28.50
2018-11-22T15:09:26.323Z,25.63
2018-11-22T15:11:57.220Z,26.67
2018-11-22T15:14:28.109Z,40.77
2018-11-22T15:16:58.936Z,26.67
2018-11-22T15:19:29.750Z,25.80
2018-11-22T15:22:00.549Z,25.23
2018-11-22T15:24:31.507Z,25.80
2018-11-22T15:27:02.478Z,24.17
2018-11-22T15:29:33.267Z,25.37
2018-11-22T15:32:04.092Z,25.93
2018-11-22T15:34:34.936Z,25.50
2018-11-22T15:37:06.032Z,27.27
2018-11-22T15:39:36.812Z,31.60
2018-11-22T15:42:08.037Z,23.10
2018-11-22T15:44:39.391Z,25.53
2018-11-22T15:47:10.356Z,25.30
2018-11-22T15:49:41.418Z,25.63
2018-11-22T15:52:12.429Z,23.37
2018-11-22T15:54:43.518Z,22.97
2018-11-22T15:57:14.770Z,22.07
2018-11-22T15:59:45.707Z,24.23
2018-11-22T16:02:16.892Z,37.57
2018-11-22T16:04:48.146Z,29.00
2018-11-22T16:07:18.980Z,47.87
2018-11-22T16:09:49.958Z,27.47
2018-11-22T16:12:21.463Z,25.17
2018-11-22T16:14:52.373Z,25.53
2018-11-22T16:17:23.183Z,23.27
2018-11-22T16:19:54.234Z,24.70
2018-11-22T16:22:25.114Z,23.77
2018-11-22T16:24:56.098Z,25.43
2018-11-22T16:27:27.120Z,23.73
2018-11-22T16:29:57.950Z,29.63
2018-11-22T16:32:28.820Z,29.13
2018-11-22T16:34:59.760Z,28.00
2018-11-22T16:37:30.640Z,26.50
2018-11-22T16:40:01.576Z,25.93
2018-11-22T16:42:32.690Z,25.50
2018-11-22T16:45:03.560Z,26.17
2018-11-22T16:47:34.366Z,27.70
2018-11-22T16:50:05.564Z,26.77
2018-11-22T16:52:36.426Z,27.23
2018-11-22T16:55:08.538Z,26.23
2018-11-22T16:57:39.717Z,26.73
2018-11-22T17:00:22.198Z,26.97
2018-11-22T17:02:54.085Z,27.27
2018-11-22T17:05:25.231Z,27.67
2018-11-22T17:07:56.354Z,28.53
2018-11-22T17:10:28.395Z,29.73
2018-11-22T17:13:00.371Z,29.00
2018-11-22T17:15:32.856Z,28.93
2018-11-22T17:18:04.506Z,28.87
2018-11-22T17:20:35.761Z,28.63
2018-11-22T17:23:08.013Z,30.30
2018-11-22T17:25:39.490Z,28.80
2018-11-22T17:28:11.112Z,29.43
2018-11-22T17:30:43.405Z,29.27
2018-11-22T17:33:14.347Z,30.10
2018-11-22T17:35:45.548Z,26.93
2018-11-22T17:38:16.572Z,27.93
2018-11-22T17:41:26.334Z,31.30
2018-11-22T17:44:16.479Z,30.43
2018-11-22T17:50:16.570Z,29.20
2018-11-22T17:53:26.319Z,30.20
2018-11-22T17:56:16.172Z,29.63
2018-11-22T17:59:06.389Z,30.90
2018-11-22T18:01:56.505Z,32.70
2018-11-22T18:07:42.379Z,34.57
2018-11-22T18:10:51.372Z,34.47
2018-11-22T18:13:59.918Z,34.50
2018-11-22T18:17:09.261Z,33.70
2018-11-22T18:19:59.206Z,33.50
2018-11-22T18:23:11.447Z,36.47
2018-11-22T18:26:17.990Z,31.33
2018-11-22T18:29:07.851Z,32.93
2018-11-22T18:31:57.747Z,34.60
2018-11-22T18:34:48.009Z,37.87
2018-11-22T18:37:19.943Z,34.37
2018-11-22T18:39:51.361Z,38.03
2018-11-22T18:42:22.844Z,34.40
2018-11-22T18:44:54.736Z,34.90
2018-11-22T18:47:26.055Z,32.57
2018-11-22T18:49:57.390Z,33.23
2018-11-22T18:52:28.632Z,34.87
2018-11-22T18:55:00.220Z,34.80
2018-11-22T18:57:31.592Z,32.90
2018-11-22T19:00:03.057Z,32.67
2018-11-22T19:02:34.669Z,38.00
2018-11-22T19:05:11.889Z,34.83
2018-11-22T19:07:44.289Z,32.70
2018-11-22T19:10:18.721Z,33.90
2018-11-22T19:12:51.375Z,30.13
2018-11-22T19:15:24.640Z,40.30
2018-11-22T19:17:56.173Z,35.70
2018-11-22T19:20:31.665Z,34.63
2018-11-22T19:23:03.876Z,36.67
2018-11-22T19:25:35.253Z,33.77
2018-11-22T19:28:07.885Z,38.03
2018-11-22T19:30:44.553Z,35.90
2018-11-22T19:33:17.952Z,33.03
2018-11-22T19:35:51.194Z,37.50
2018-11-22T19:38:23.177Z,40.23
2018-11-22T19:40:54.609Z,35.53
2018-11-22T19:43:26.051Z,36.10
2018-11-22T19:45:57.413Z,46.87
2018-11-22T19:48:28.840Z,37.57
2018-11-22T19:51:05.565Z,37.60
2018-11-22T19:53:32.714Z,49.37
2018-11-22T19:56:04.219Z,45.73
2018-11-22T19:58:35.747Z,35.20
2018-11-22T20:01:07.934Z,33.00
2018-11-22T20:03:39.591Z,41.73
2018-11-22T20:06:11.359Z,32.47
2018-11-22T20:08:42.668Z,32.03
2018-11-22T20:11:14.181Z,33.20
2018-11-22T20:13:46.814Z,35.73
2018-11-22T20:16:18.309Z,32.17
2018-11-22T20:18:50.751Z,33.60
2018-11-22T20:21:22.221Z,36.03
2018-11-22T20:23:53.512Z,30.53
2018-11-22T20:26:24.940Z,31.30
2018-11-22T20:28:56.285Z,31.87
2018-11-22T20:31:28.104Z,36.13
2018-11-22T20:33:59.560Z,31.97
2018-11-22T20:36:30.982Z,33.47
2018-11-22T20:39:02.369Z,29.37
2018-11-22T20:41:33.692Z,31.70
2018-11-22T20:44:05.346Z,30.23
2018-11-22T20:46:37.182Z,30.83
2018-11-22T20:49:08.712Z,30.77
2018-11-22T20:51:40.345Z,29.60
2018-11-22T20:54:14.655Z,30.10
2018-11-22T20:56:46.055Z,52.73
2018-11-22T20:59:19.504Z,29.37
2018-11-22T21:01:51.707Z,30.30
2018-11-22T21:04:23.284Z,27.93
2018-11-22T21:06:54.796Z,30.27
2018-11-22T21:09:26.224Z,30.03
2018-11-22T21:11:57.686Z,32.57
2018-11-22T21:14:28.845Z,30.27
2018-11-22T21:17:00.730Z,31.90
2018-11-22T21:19:31.890Z,29.53
2018-11-22T21:22:03.308Z,27.90
2018-11-22T21:24:35.632Z,29.10
2018-11-22T21:27:08.105Z,39.17
2018-11-22T21:29:39.348Z,25.90
2018-11-22T21:32:10.606Z,23.23
2018-11-22T21:34:42.385Z,24.23
2018-11-22T21:37:13.609Z,25.63
2018-11-22T21:39:45.126Z,25.63
2018-11-22T21:42:16.434Z,28.57
2018-11-22T21:44:47.748Z,24.23
2018-11-22T21:47:19.288Z,23.80
2018-11-22T21:49:50.444Z,26.03
2018-11-22T21:52:21.855Z,30.77
2018-11-22T21:54:53.390Z,28.77
2018-11-22T21:57:24.680Z,28.07
2018-11-22T21:59:56.021Z,25.50
2018-11-22T22:02:27.659Z,25.77
2018-11-22T22:04:59.024Z,30.17
2018-11-22T22:07:30.289Z,30.70
2018-11-22T22:10:01.702Z,30.87
2018-11-22T22:12:32.885Z,26.67
2018-11-22T22:15:04.644Z,28.70
2018-11-22T22:17:36.274Z,30.63
2018-11-22T22:20:11.418Z,26.53
2018-11-22T22:22:49.975Z,43.43
2018-11-22T22:25:23.435Z,31.40
2018-11-22T22:27:56.065Z,30.97
2018-11-22T22:30:28.781Z,29.43
2018-11-22T22:33:01.790Z,33.47
2018-11-22T22:35:33.553Z,27.57
2018-11-22T22:38:05.122Z,28.37
2018-11-22T22:40:36.713Z,37.80
2018-11-22T22:43:08.024Z,27.73
2018-11-22T22:45:39.284Z,27.47
2018-11-22T22:48:11.109Z,26.10
2018-11-22T22:50:42.469Z,26.53
2018-11-22T22:53:13.922Z,40.93
2018-11-22T22:55:45.507Z,29.80
2018-11-22T22:58:16.634Z,26.33
2018-11-22T23:00:51.419Z,22.50
2018-11-22T23:03:22.572Z,21.93
2018-11-22T23:05:54.011Z,35.57
2018-11-22T23:08:26.038Z,21.87
2018-11-22T23:10:57.691Z,24.97
2018-11-22T23:13:28.689Z,87.67
2018-11-22T23:16:01.094Z,19.73
2018-11-22T23:18:32.519Z,23.73
2018-11-22T23:21:03.744Z,21.27
2018-11-22T23:23:35.011Z,19.80
2018-11-22T23:26:06.462Z,22.80
2018-11-22T23:28:37.851Z,35.10
2018-11-22T23:31:10.191Z,28.17
2018-11-22T23:33:41.594Z,21.60
2018-11-22T23:36:12.685Z,33.07
2018-11-22T23:38:43.990Z,21.80
2018-11-22T23:41:15.264Z,25.80
2018-11-22T23:43:46.628Z,21.40
2018-11-22T23:46:18.180Z,20.27
2018-11-22T23:48:50.342Z,23.03
2018-11-22T23:51:21.837Z,24.90
2018-11-22T23:53:54.318Z,35.93
2018-11-22T23:56:27.866Z,24.83
2018-11-22T23:58:59.299Z,21.97
